メキシコシティ の空港の天気 - METARとTAF

メキシコ・シティ国際空港 ( MMMX / MEX ) - メキシコ メキシコシティ
飛行場実況気象(Metar)
観測時間10/17 21:43 CDT (10/18 02:43 UTC)
風向・風速北北東 5m/s
視程10km以上
天気現象
全天の4割程度の雲 雲底高度 610m
全天の8割程度の雲 雲底高度 2440m
全天の8割程度の雲 雲底高度 6100m
気温15℃
湿度77%
気圧1014hPa
METARMMMX 180243Z 02009KT 8SM SCT020 BKN080 BKN200 15/11 A3033 NOSIG RMK SLP140 52021 919 8/578 HZY OCNL DROPS
過去の天気等 Google飛行場航空写真 Wunderground天気予報

過去48時間のMETAR

飛行場予報(TAF)
発表時間: 10/17 18:07 CDT (10/17 23:07 UTC)
予報対象時間: 17日19時 CDT ~ 19日1時 CDT
風向・風速北北東 6m/s
視程10km以上
全天の4割程度の雲 雲底高度 610m
全天の8割程度の雲 雲底高度 2440m
全天を覆う雲 雲底高度 6710m
17日19時 CDT ~ 17日23時 CDT に一時的に
視程8050m
天気現象
全天の8割程度の雲 雲底高度 610m
全天を覆う雲 雲底高度 2440m
18日0時 CDT から
風向・風速東北東 3m/s
視程10km以上
全天の4割程度の雲 雲底高度 610m
全天の8割程度の雲 雲底高度 2440m
18日5時 CDT ~ 18日6時 CDT に徐々に
視程10km以上
天気現象煙霧
全天の8割程度の雲 雲底高度 610m
全天の8割程度の雲 雲底高度 2440m
18日12時 CDT から
風向・風速東 6m/s
視程10km以上
全天の8割程度の雲 雲底高度 610m
全天を覆う雲 雲底高度 2440m
18日14時 CDT ~ 18日15時 CDT に徐々に
視程10km以上
天気現象弱い雨
18日16時 CDT ~ 18日20時 CDT に一時的に
視程6440m
天気現象
TAF MMMX 172307Z 1800/1906 03012KT P6SM SCT020 BKN080 OVC220 TX20/1821Z TN12/1812Z
TEMPO 1800/1804 5SM RA BKN020 OVC080
FM180500 06005KT P6SM SCT020 BKN080
BECMG 1810/1811 6SM HZ BKN020 BKN080
FM181700 08012KT P6SM BKN020 OVC080
BECMG 1819/1820 6SM -RA
TEMPO 1821/1901 4SM RA